sensor_id;sensor_type;location;lat;lon;timestamp;P1;durP1;ratioP1;P2;durP2;ratioP2
11125;SDS011;5617;54.046;10.676;2024-03-08T00:01:58;6.67;;;5.20;;
11125;SDS011;5617;54.046;10.676;2024-03-08T00:04:07;8.50;;;5.87;;
11125;SDS011;5617;54.046;10.676;2024-03-08T00:06:16;8.07;;;5.03;;
11125;SDS011;5617;54.046;10.676;2024-03-08T00:08:24;7.03;;;5.70;;
11125;SDS011;5617;54.046;10.676;2024-03-08T00:10:36;8.87;;;5.77;;
11125;SDS011;5617;54.046;10.676;2024-03-08T00:12:46;7.20;;;5.50;;
11125;SDS011;5617;54.046;10.676;2024-03-08T00:14:56;7.23;;;5.70;;
11125;SDS011;5617;54.046;10.676;2024-03-08T00:17:05;7.90;;;5.87;;
11125;SDS011;5617;54.046;10.676;2024-03-08T00:19:15;9.03;;;6.03;;
11125;SDS011;5617;54.046;10.676;2024-03-08T00:21:24;9.03;;;6.30;;
11125;SDS011;5617;54.046;10.676;2024-03-08T00:23:33;6.97;;;5.57;;
11125;SDS011;5617;54.046;10.676;2024-03-08T00:25:45;7.53;;;6.10;;
11125;SDS011;5617;54.046;10.676;2024-03-08T00:27:57;6.93;;;5.17;;
11125;SDS011;5617;54.046;10.676;2024-03-08T00:30:07;10.07;;;6.40;;
11125;SDS011;5617;54.046;10.676;2024-03-08T00:32:16;7.03;;;5.70;;
11125;SDS011;5617;54.046;10.676;2024-03-08T00:34:26;8.40;;;6.03;;
11125;SDS011;5617;54.046;10.676;2024-03-08T00:36:34;8.87;;;5.80;;
11125;SDS011;5617;54.046;10.676;2024-03-08T00:38:42;8.07;;;6.27;;
11125;SDS011;5617;54.046;10.676;2024-03-08T00:40:51;9.40;;;6.40;;
11125;SDS011;5617;54.046;10.676;2024-03-08T00:42:59;7.57;;;6.00;;
11125;SDS011;5617;54.046;10.676;2024-03-08T00:45:10;8.07;;;5.47;;
11125;SDS011;5617;54.046;10.676;2024-03-08T00:47:19;9.87;;;6.50;;
11125;SDS011;5617;54.046;10.676;2024-03-08T00:49:29;8.77;;;6.43;;
11125;SDS011;5617;54.046;10.676;2024-03-08T00:51:37;10.73;;;6.47;;
11125;SDS011;5617;54.046;10.676;2024-03-08T00:53:46;10.20;;;6.90;;
11125;SDS011;5617;54.046;10.676;2024-03-08T00:55:55;8.53;;;6.30;;
11125;SDS011;5617;54.046;10.676;2024-03-08T00:58:09;9.27;;;6.80;;
11125;SDS011;5617;54.046;10.676;2024-03-08T01:00:18;9.00;;;6.90;;
11125;SDS011;5617;54.046;10.676;2024-03-08T01:02:34;9.47;;;7.47;;
11125;SDS011;5617;54.046;10.676;2024-03-08T01:04:44;10.47;;;7.50;;
11125;SDS011;5617;54.046;10.676;2024-03-08T01:06:54;11.43;;;7.40;;
11125;SDS011;5617;54.046;10.676;2024-03-08T01:09:06;9.57;;;7.50;;
11125;SDS011;5617;54.046;10.676;2024-03-08T01:11:15;10.17;;;6.90;;
11125;SDS011;5617;54.046;10.676;2024-03-08T01:13:24;10.80;;;6.27;;
11125;SDS011;5617;54.046;10.676;2024-03-08T01:15:33;11.70;;;7.03;;
11125;SDS011;5617;54.046;10.676;2024-03-08T01:17:41;11.50;;;7.13;;
11125;SDS011;5617;54.046;10.676;2024-03-08T01:19:52;8.57;;;6.53;;
11125;SDS011;5617;54.046;10.676;2024-03-08T01:22:00;10.13;;;7.20;;
11125;SDS011;5617;54.046;10.676;2024-03-08T01:24:10;8.93;;;6.97;;
11125;SDS011;5617;54.046;10.676;2024-03-08T01:26:22;9.57;;;6.83;;
11125;SDS011;5617;54.046;10.676;2024-03-08T01:28:31;10.73;;;7.23;;
11125;SDS011;5617;54.046;10.676;2024-03-08T01:30:40;10.73;;;6.97;;
11125;SDS011;5617;54.046;10.676;2024-03-08T01:32:49;10.97;;;7.60;;
11125;SDS011;5617;54.046;10.676;2024-03-08T01:34:59;7.93;;;6.20;;
11125;SDS011;5617;54.046;10.676;2024-03-08T01:37:07;12.27;;;7.43;;
11125;SDS011;5617;54.046;10.676;2024-03-08T01:39:21;12.03;;;6.43;;
11125;SDS011;5617;54.046;10.676;2024-03-08T01:41:30;8.83;;;6.80;;
11125;SDS011;5617;54.046;10.676;2024-03-08T01:43:38;10.10;;;6.87;;
11125;SDS011;5617;54.046;10.676;2024-03-08T01:45:49;10.40;;;6.50;;
11125;SDS011;5617;54.046;10.676;2024-03-08T01:47:59;9.60;;;7.27;;
11125;SDS011;5617;54.046;10.676;2024-03-08T01:50:09;9.50;;;7.20;;
11125;SDS011;5617;54.046;10.676;2024-03-08T01:52:19;9.87;;;6.63;;
11125;SDS011;5617;54.046;10.676;2024-03-08T01:54:30;9.33;;;6.57;;
11125;SDS011;5617;54.046;10.676;2024-03-08T01:56:39;9.67;;;6.90;;
11125;SDS011;5617;54.046;10.676;2024-03-08T01:58:54;9.77;;;6.73;;
11125;SDS011;5617;54.046;10.676;2024-03-08T02:01:08;11.20;;;7.23;;
11125;SDS011;5617;54.046;10.676;2024-03-08T02:03:18;8.53;;;6.87;;
11125;SDS011;5617;54.046;10.676;2024-03-08T02:05:28;8.93;;;6.43;;
11125;SDS011;5617;54.046;10.676;2024-03-08T02:07:37;9.73;;;7.30;;
11125;SDS011;5617;54.046;10.676;2024-03-08T02:09:46;9.57;;;6.80;;
11125;SDS011;5617;54.046;10.676;2024-03-08T02:11:54;10.23;;;7.33;;
11125;SDS011;5617;54.046;10.676;2024-03-08T02:14:05;9.83;;;6.93;;
11125;SDS011;5617;54.046;10.676;2024-03-08T02:16:19;8.43;;;6.80;;
11125;SDS011;5617;54.046;10.676;2024-03-08T02:18:30;9.63;;;7.03;;
11125;SDS011;5617;54.046;10.676;2024-03-08T02:20:44;10.40;;;6.73;;
11125;SDS011;5617;54.046;10.676;2024-03-08T02:22:54;10.63;;;6.90;;
11125;SDS011;5617;54.046;10.676;2024-03-08T02:25:03;9.40;;;7.03;;
11125;SDS011;5617;54.046;10.676;2024-03-08T02:27:12;8.67;;;7.20;;
11125;SDS011;5617;54.046;10.676;2024-03-08T02:29:21;9.13;;;7.07;;
11125;SDS011;5617;54.046;10.676;2024-03-08T02:31:30;11.17;;;6.97;;
11125;SDS011;5617;54.046;10.676;2024-03-08T02:33:38;11.83;;;6.93;;
11125;SDS011;5617;54.046;10.676;2024-03-08T02:35:49;11.30;;;7.23;;
11125;SDS011;5617;54.046;10.676;2024-03-08T02:37:58;9.40;;;7.57;;
11125;SDS011;5617;54.046;10.676;2024-03-08T02:40:07;11.17;;;7.13;;
11125;SDS011;5617;54.046;10.676;2024-03-08T02:42:16;9.07;;;7.03;;
11125;SDS011;5617;54.046;10.676;2024-03-08T02:44:25;10.03;;;7.00;;
11125;SDS011;5617;54.046;10.676;2024-03-08T02:46:35;10.43;;;7.20;;
11125;SDS011;5617;54.046;10.676;2024-03-08T02:48:43;10.83;;;7.00;;
11125;SDS011;5617;54.046;10.676;2024-03-08T02:50:53;13.63;;;7.60;;
11125;SDS011;5617;54.046;10.676;2024-03-08T02:53:02;9.03;;;6.70;;
11125;SDS011;5617;54.046;10.676;2024-03-08T02:55:10;10.90;;;7.13;;
11125;SDS011;5617;54.046;10.676;2024-03-08T02:57:22;11.80;;;6.63;;
11125;SDS011;5617;54.046;10.676;2024-03-08T02:59:31;7.73;;;6.37;;
11125;SDS011;5617;54.046;10.676;2024-03-08T03:01:43;9.60;;;6.77;;
11125;SDS011;5617;54.046;10.676;2024-03-08T03:03:52;10.90;;;7.07;;
11125;SDS011;5617;54.046;10.676;2024-03-08T03:06:02;13.00;;;7.30;;
11125;SDS011;5617;54.046;10.676;2024-03-08T03:08:11;10.67;;;7.37;;
11125;SDS011;5617;54.046;10.676;2024-03-08T03:10:20;10.27;;;7.00;;
11125;SDS011;5617;54.046;10.676;2024-03-08T03:12:29;12.67;;;7.27;;
11125;SDS011;5617;54.046;10.676;2024-03-08T03:14:41;9.43;;;6.43;;
11125;SDS011;5617;54.046;10.676;2024-03-08T03:16:50;10.93;;;7.37;;
11125;SDS011;5617;54.046;10.676;2024-03-08T03:19:03;12.43;;;7.03;;
11125;SDS011;5617;54.046;10.676;2024-03-08T03:21:13;12.57;;;8.13;;
11125;SDS011;5617;54.046;10.676;2024-03-08T03:23:40;9.47;;;6.50;;
11125;SDS011;5617;54.046;10.676;2024-03-08T03:25:49;11.37;;;6.83;;
11125;SDS011;5617;54.046;10.676;2024-03-08T03:27:58;12.13;;;7.77;;
11125;SDS011;5617;54.046;10.676;2024-03-08T03:30:07;9.53;;;7.63;;
11125;SDS011;5617;54.046;10.676;2024-03-08T03:32:29;9.90;;;7.57;;
11125;SDS011;5617;54.046;10.676;2024-03-08T03:34:38;11.10;;;7.13;;
11125;SDS011;5617;54.046;10.676;2024-03-08T03:36:49;10.47;;;6.77;;
11125;SDS011;5617;54.046;10.676;2024-03-08T03:38:59;9.47;;;7.60;;
11125;SDS011;5617;54.046;10.676;2024-03-08T03:41:13;11.47;;;7.70;;
11125;SDS011;5617;54.046;10.676;2024-03-08T03:43:25;12.50;;;7.87;;
11125;SDS011;5617;54.046;10.676;2024-03-08T03:45:32;10.50;;;7.57;;
11125;SDS011;5617;54.046;10.676;2024-03-08T03:47:47;11.37;;;8.33;;
11125;SDS011;5617;54.046;10.676;2024-03-08T03:49:55;12.30;;;8.00;;
11125;SDS011;5617;54.046;10.676;2024-03-08T03:52:10;12.33;;;8.03;;
11125;SDS011;5617;54.046;10.676;2024-03-08T03:54:19;11.87;;;8.17;;
11125;SDS011;5617;54.046;10.676;2024-03-08T03:56:27;12.20;;;8.77;;
11125;SDS011;5617;54.046;10.676;2024-03-08T03:58:35;12.03;;;8.63;;
11125;SDS011;5617;54.046;10.676;2024-03-08T04:00:43;12.00;;;8.30;;
11125;SDS011;5617;54.046;10.676;2024-03-08T04:02:52;10.87;;;8.20;;
11125;SDS011;5617;54.046;10.676;2024-03-08T04:05:02;13.53;;;8.90;;
11125;SDS011;5617;54.046;10.676;2024-03-08T04:07:16;11.80;;;8.40;;
11125;SDS011;5617;54.046;10.676;2024-03-08T04:09:34;12.73;;;8.20;;
11125;SDS011;5617;54.046;10.676;2024-03-08T04:11:43;11.63;;;8.23;;
11125;SDS011;5617;54.046;10.676;2024-03-08T04:13:52;11.33;;;7.97;;
11125;SDS011;5617;54.046;10.676;2024-03-08T04:16:05;12.67;;;8.27;;
11125;SDS011;5617;54.046;10.676;2024-03-08T04:18:19;10.37;;;8.27;;
11125;SDS011;5617;54.046;10.676;2024-03-08T04:20:27;12.50;;;8.87;;
11125;SDS011;5617;54.046;10.676;2024-03-08T04:22:42;14.13;;;9.27;;
11125;SDS011;5617;54.046;10.676;2024-03-08T04:24:51;10.53;;;8.17;;
11125;SDS011;5617;54.046;10.676;2024-03-08T04:26:59;14.13;;;8.87;;
11125;SDS011;5617;54.046;10.676;2024-03-08T04:29:09;12.17;;;9.23;;
11125;SDS011;5617;54.046;10.676;2024-03-08T04:31:18;14.73;;;9.70;;
11125;SDS011;5617;54.046;10.676;2024-03-08T04:33:28;14.07;;;10.43;;
11125;SDS011;5617;54.046;10.676;2024-03-08T04:35:42;12.67;;;9.70;;
11125;SDS011;5617;54.046;10.676;2024-03-08T04:37:54;14.07;;;10.27;;
11125;SDS011;5617;54.046;10.676;2024-03-08T04:40:04;14.17;;;10.27;;
11125;SDS011;5617;54.046;10.676;2024-03-08T04:42:24;14.30;;;9.93;;
11125;SDS011;5617;54.046;10.676;2024-03-08T04:44:33;13.57;;;10.37;;
11125;SDS011;5617;54.046;10.676;2024-03-08T04:46:41;14.70;;;10.77;;
11125;SDS011;5617;54.046;10.676;2024-03-08T04:48:52;16.50;;;10.73;;
11125;SDS011;5617;54.046;10.676;2024-03-08T04:51:01;13.23;;;10.47;;
11125;SDS011;5617;54.046;10.676;2024-03-08T04:53:12;14.47;;;11.80;;
11125;SDS011;5617;54.046;10.676;2024-03-08T04:55:20;13.50;;;10.23;;
11125;SDS011;5617;54.046;10.676;2024-03-08T04:57:33;15.53;;;11.40;;
11125;SDS011;5617;54.046;10.676;2024-03-08T04:59:45;14.00;;;10.40;;
11125;SDS011;5617;54.046;10.676;2024-03-08T05:01:58;15.47;;;10.73;;
11125;SDS011;5617;54.046;10.676;2024-03-08T05:04:08;14.67;;;10.80;;
11125;SDS011;5617;54.046;10.676;2024-03-08T05:06:19;14.57;;;11.33;;
11125;SDS011;5617;54.046;10.676;2024-03-08T05:08:30;16.83;;;12.10;;
11125;SDS011;5617;54.046;10.676;2024-03-08T05:10:45;17.83;;;11.53;;
11125;SDS011;5617;54.046;10.676;2024-03-08T05:12:54;15.87;;;12.10;;
11125;SDS011;5617;54.046;10.676;2024-03-08T05:15:05;15.00;;;11.53;;
11125;SDS011;5617;54.046;10.676;2024-03-08T05:17:32;16.90;;;11.23;;
11125;SDS011;5617;54.046;10.676;2024-03-08T05:19:45;16.13;;;11.03;;
11125;SDS011;5617;54.046;10.676;2024-03-08T05:21:55;15.53;;;10.33;;
11125;SDS011;5617;54.046;10.676;2024-03-08T05:24:06;14.10;;;10.93;;
11125;SDS011;5617;54.046;10.676;2024-03-08T05:26:14;10.20;;;7.10;;
11125;SDS011;5617;54.046;10.676;2024-03-08T05:28:23;15.53;;;11.63;;
11125;SDS011;5617;54.046;10.676;2024-03-08T05:30:31;16.80;;;9.20;;
11125;SDS011;5617;54.046;10.676;2024-03-08T05:32:39;13.83;;;10.60;;
11125;SDS011;5617;54.046;10.676;2024-03-08T05:34:55;18.63;;;8.87;;
11125;SDS011;5617;54.046;10.676;2024-03-08T05:37:04;18.23;;;11.40;;
11125;SDS011;5617;54.046;10.676;2024-03-08T05:39:15;18.27;;;12.13;;
11125;SDS011;5617;54.046;10.676;2024-03-08T05:41:24;15.00;;;11.47;;
11125;SDS011;5617;54.046;10.676;2024-03-08T05:43:33;15.93;;;10.67;;
11125;SDS011;5617;54.046;10.676;2024-03-08T05:45:41;17.73;;;11.33;;
11125;SDS011;5617;54.046;10.676;2024-03-08T05:47:51;17.00;;;11.87;;
11125;SDS011;5617;54.046;10.676;2024-03-08T05:49:59;14.80;;;10.80;;
11125;SDS011;5617;54.046;10.676;2024-03-08T05:52:14;16.07;;;10.77;;
11125;SDS011;5617;54.046;10.676;2024-03-08T05:54:25;18.73;;;12.10;;
11125;SDS011;5617;54.046;10.676;2024-03-08T05:56:33;16.73;;;12.20;;
11125;SDS011;5617;54.046;10.676;2024-03-08T05:58:43;16.80;;;11.17;;
11125;SDS011;5617;54.046;10.676;2024-03-08T06:00:52;17.03;;;12.40;;
11125;SDS011;5617;54.046;10.676;2024-03-08T06:03:00;16.50;;;11.90;;
11125;SDS011;5617;54.046;10.676;2024-03-08T06:05:08;18.70;;;12.97;;
11125;SDS011;5617;54.046;10.676;2024-03-08T06:07:17;16.97;;;12.50;;
11125;SDS011;5617;54.046;10.676;2024-03-08T06:09:28;19.97;;;12.60;;
11125;SDS011;5617;54.046;10.676;2024-03-08T06:11:39;18.07;;;11.70;;
11125;SDS011;5617;54.046;10.676;2024-03-08T06:13:52;15.83;;;9.67;;
11125;SDS011;5617;54.046;10.676;2024-03-08T06:16:10;17.50;;;12.53;;
11125;SDS011;5617;54.046;10.676;2024-03-08T06:18:18;19.23;;;11.67;;
11125;SDS011;5617;54.046;10.676;2024-03-08T06:20:27;21.03;;;13.30;;
11125;SDS011;5617;54.046;10.676;2024-03-08T06:22:39;20.63;;;13.27;;
11125;SDS011;5617;54.046;10.676;2024-03-08T06:24:56;16.17;;;10.50;;
11125;SDS011;5617;54.046;10.676;2024-03-08T06:27:04;19.50;;;12.23;;
11125;SDS011;5617;54.046;10.676;2024-03-08T06:29:14;19.13;;;13.33;;
11125;SDS011;5617;54.046;10.676;2024-03-08T06:31:23;18.47;;;12.27;;
11125;SDS011;5617;54.046;10.676;2024-03-08T06:33:31;17.10;;;11.63;;
11125;SDS011;5617;54.046;10.676;2024-03-08T06:35:40;18.70;;;11.57;;
11125;SDS011;5617;54.046;10.676;2024-03-08T06:37:48;16.03;;;11.67;;
11125;SDS011;5617;54.046;10.676;2024-03-08T06:40:02;19.87;;;13.33;;
11125;SDS011;5617;54.046;10.676;2024-03-08T06:42:10;20.60;;;12.50;;
11125;SDS011;5617;54.046;10.676;2024-03-08T06:44:19;19.97;;;13.73;;
11125;SDS011;5617;54.046;10.676;2024-03-08T06:46:28;20.50;;;14.50;;
11125;SDS011;5617;54.046;10.676;2024-03-08T06:48:36;20.00;;;14.00;;
11125;SDS011;5617;54.046;10.676;2024-03-08T06:50:44;21.63;;;14.30;;
11125;SDS011;5617;54.046;10.676;2024-03-08T06:52:55;22.13;;;14.60;;
11125;SDS011;5617;54.046;10.676;2024-03-08T06:55:06;22.47;;;14.30;;
11125;SDS011;5617;54.046;10.676;2024-03-08T06:57:19;19.80;;;14.20;;
11125;SDS011;5617;54.046;10.676;2024-03-08T06:59:28;21.20;;;13.73;;
11125;SDS011;5617;54.046;10.676;2024-03-08T07:01:36;19.13;;;13.20;;
11125;SDS011;5617;54.046;10.676;2024-03-08T07:03:48;17.57;;;12.23;;
11125;SDS011;5617;54.046;10.676;2024-03-08T07:05:59;17.50;;;12.93;;
11125;SDS011;5617;54.046;10.676;2024-03-08T07:08:18;16.23;;;10.13;;
11125;SDS011;5617;54.046;10.676;2024-03-08T07:10:30;18.13;;;11.93;;
11125;SDS011;5617;54.046;10.676;2024-03-08T07:12:38;19.90;;;12.30;;
11125;SDS011;5617;54.046;10.676;2024-03-08T07:14:46;21.00;;;13.20;;
11125;SDS011;5617;54.046;10.676;2024-03-08T07:16:54;18.33;;;11.77;;
11125;SDS011;5617;54.046;10.676;2024-03-08T07:19:10;14.97;;;10.47;;
11125;SDS011;5617;54.046;10.676;2024-03-08T07:21:18;18.43;;;11.57;;
11125;SDS011;5617;54.046;10.676;2024-03-08T07:23:29;16.37;;;12.00;;
11125;SDS011;5617;54.046;10.676;2024-03-08T07:26:11;15.87;;;10.90;;
11125;SDS011;5617;54.046;10.676;2024-03-08T07:28:23;18.83;;;11.90;;
11125;SDS011;5617;54.046;10.676;2024-03-08T07:30:32;17.20;;;11.37;;
11125;SDS011;5617;54.046;10.676;2024-03-08T07:32:58;19.57;;;13.23;;
11125;SDS011;5617;54.046;10.676;2024-03-08T07:35:09;20.83;;;12.87;;
11125;SDS011;5617;54.046;10.676;2024-03-08T07:37:20;16.83;;;9.20;;
11125;SDS011;5617;54.046;10.676;2024-03-08T07:39:31;17.97;;;12.03;;
11125;SDS011;5617;54.046;10.676;2024-03-08T07:41:43;17.43;;;11.53;;
11125;SDS011;5617;54.046;10.676;2024-03-08T07:43:51;19.60;;;12.17;;
11125;SDS011;5617;54.046;10.676;2024-03-08T07:45:58;15.57;;;9.50;;
11125;SDS011;5617;54.046;10.676;2024-03-08T07:48:07;19.43;;;13.50;;
11125;SDS011;5617;54.046;10.676;2024-03-08T07:50:17;17.37;;;11.70;;
11125;SDS011;5617;54.046;10.676;2024-03-08T07:52:27;15.67;;;10.73;;
11125;SDS011;5617;54.046;10.676;2024-03-08T07:54:45;16.70;;;11.20;;
11125;SDS011;5617;54.046;10.676;2024-03-08T07:56:57;17.87;;;12.13;;
11125;SDS011;5617;54.046;10.676;2024-03-08T07:59:05;17.67;;;12.43;;
11125;SDS011;5617;54.046;10.676;2024-03-08T08:01:15;16.70;;;10.37;;
11125;SDS011;5617;54.046;10.676;2024-03-08T08:03:24;16.83;;;11.87;;
11125;SDS011;5617;54.046;10.676;2024-03-08T08:05:37;17.30;;;11.47;;
11125;SDS011;5617;54.046;10.676;2024-03-08T08:08:04;17.27;;;11.77;;
11125;SDS011;5617;54.046;10.676;2024-03-08T08:10:13;17.57;;;11.47;;
11125;SDS011;5617;54.046;10.676;2024-03-08T08:12:26;17.00;;;11.60;;
11125;SDS011;5617;54.046;10.676;2024-03-08T08:14:36;16.97;;;12.13;;
11125;SDS011;5617;54.046;10.676;2024-03-08T08:16:45;15.17;;;9.97;;
11125;SDS011;5617;54.046;10.676;2024-03-08T08:18:58;18.67;;;12.20;;
11125;SDS011;5617;54.046;10.676;2024-03-08T08:21:06;15.87;;;10.97;;
11125;SDS011;5617;54.046;10.676;2024-03-08T08:23:21;14.67;;;8.73;;
11125;SDS011;5617;54.046;10.676;2024-03-08T08:25:35;16.40;;;11.00;;
11125;SDS011;5617;54.046;10.676;2024-03-08T08:27:46;15.57;;;10.20;;
11125;SDS011;5617;54.046;10.676;2024-03-08T08:29:54;15.90;;;9.00;;
11125;SDS011;5617;54.046;10.676;2024-03-08T08:32:04;17.93;;;11.63;;
11125;SDS011;5617;54.046;10.676;2024-03-08T08:34:13;16.13;;;11.97;;
11125;SDS011;5617;54.046;10.676;2024-03-08T08:36:22;13.13;;;9.20;;
11125;SDS011;5617;54.046;10.676;2024-03-08T08:38:30;15.80;;;9.67;;
11125;SDS011;5617;54.046;10.676;2024-03-08T08:40:39;16.53;;;11.53;;
11125;SDS011;5617;54.046;10.676;2024-03-08T08:42:49;17.97;;;11.73;;
11125;SDS011;5617;54.046;10.676;2024-03-08T08:44:59;13.13;;;9.43;;
11125;SDS011;5617;54.046;10.676;2024-03-08T08:47:22;13.93;;;9.00;;
11125;SDS011;5617;54.046;10.676;2024-03-08T08:49:31;13.30;;;7.83;;
11125;SDS011;5617;54.046;10.676;2024-03-08T08:51:39;14.03;;;9.97;;
11125;SDS011;5617;54.046;10.676;2024-03-08T08:53:47;14.63;;;9.20;;
11125;SDS011;5617;54.046;10.676;2024-03-08T08:55:56;18.17;;;11.47;;
11125;SDS011;5617;54.046;10.676;2024-03-08T08:58:06;15.87;;;11.53;;
11125;SDS011;5617;54.046;10.676;2024-03-08T09:00:14;15.03;;;10.60;;
11125;SDS011;5617;54.046;10.676;2024-03-08T09:02:23;15.70;;;10.97;;
11125;SDS011;5617;54.046;10.676;2024-03-08T09:04:32;15.77;;;10.23;;
11125;SDS011;5617;54.046;10.676;2024-03-08T09:06:42;15.67;;;9.03;;
11125;SDS011;5617;54.046;10.676;2024-03-08T09:08:52;15.50;;;10.97;;
11125;SDS011;5617;54.046;10.676;2024-03-08T09:11:00;14.73;;;11.03;;
11125;SDS011;5617;54.046;10.676;2024-03-08T09:13:10;16.97;;;11.87;;
11125;SDS011;5617;54.046;10.676;2024-03-08T09:15:32;16.93;;;12.10;;
11125;SDS011;5617;54.046;10.676;2024-03-08T09:17:40;14.47;;;9.30;;
11125;SDS011;5617;54.046;10.676;2024-03-08T09:19:49;17.13;;;11.17;;
11125;SDS011;5617;54.046;10.676;2024-03-08T09:21:58;17.50;;;12.20;;
11125;SDS011;5617;54.046;10.676;2024-03-08T09:24:06;14.77;;;10.43;;
11125;SDS011;5617;54.046;10.676;2024-03-08T09:26:15;14.33;;;11.13;;
11125;SDS011;5617;54.046;10.676;2024-03-08T09:28:34;14.67;;;9.60;;
11125;SDS011;5617;54.046;10.676;2024-03-08T09:30:42;17.30;;;11.87;;
11125;SDS011;5617;54.046;10.676;2024-03-08T09:33:05;14.47;;;10.93;;
11125;SDS011;5617;54.046;10.676;2024-03-08T09:35:14;17.60;;;11.23;;
11125;SDS011;5617;54.046;10.676;2024-03-08T09:37:22;15.30;;;10.30;;
11125;SDS011;5617;54.046;10.676;2024-03-08T09:39:29;17.00;;;11.70;;
11125;SDS011;5617;54.046;10.676;2024-03-08T09:41:39;15.43;;;11.20;;
11125;SDS011;5617;54.046;10.676;2024-03-08T09:43:49;13.17;;;10.40;;
11125;SDS011;5617;54.046;10.676;2024-03-08T09:45:57;15.83;;;10.17;;
11125;SDS011;5617;54.046;10.676;2024-03-08T09:48:07;15.77;;;10.97;;
11125;SDS011;5617;54.046;10.676;2024-03-08T09:50:20;12.93;;;9.43;;
11125;SDS011;5617;54.046;10.676;2024-03-08T09:52:28;12.13;;;9.27;;
11125;SDS011;5617;54.046;10.676;2024-03-08T09:54:39;15.60;;;10.47;;
11125;SDS011;5617;54.046;10.676;2024-03-08T09:56:51;14.47;;;11.10;;
11125;SDS011;5617;54.046;10.676;2024-03-08T09:59:01;15.83;;;10.67;;
11125;SDS011;5617;54.046;10.676;2024-03-08T10:01:39;14.43;;;11.00;;
11125;SDS011;5617;54.046;10.676;2024-03-08T10:03:49;15.53;;;10.60;;
11125;SDS011;5617;54.046;10.676;2024-03-08T10:06:01;16.23;;;9.23;;
11125;SDS011;5617;54.046;10.676;2024-03-08T10:08:12;12.27;;;8.43;;
11125;SDS011;5617;54.046;10.676;2024-03-08T10:10:24;13.90;;;10.77;;
11125;SDS011;5617;54.046;10.676;2024-03-08T10:12:37;14.67;;;11.10;;
11125;SDS011;5617;54.046;10.676;2024-03-08T10:14:48;13.67;;;9.60;;
11125;SDS011;5617;54.046;10.676;2024-03-08T10:16:58;14.50;;;11.13;;
11125;SDS011;5617;54.046;10.676;2024-03-08T10:19:08;17.33;;;10.67;;
11125;SDS011;5617;54.046;10.676;2024-03-08T10:21:19;13.77;;;9.53;;
11125;SDS011;5617;54.046;10.676;2024-03-08T10:23:27;12.20;;;8.50;;
11125;SDS011;5617;54.046;10.676;2024-03-08T10:25:45;15.30;;;10.90;;
11125;SDS011;5617;54.046;10.676;2024-03-08T10:27:53;11.90;;;7.97;;
11125;SDS011;5617;54.046;10.676;2024-03-08T10:30:05;14.43;;;10.97;;
11125;SDS011;5617;54.046;10.676;2024-03-08T10:32:16;13.40;;;10.33;;
11125;SDS011;5617;54.046;10.676;2024-03-08T10:34:25;14.20;;;11.10;;
11125;SDS011;5617;54.046;10.676;2024-03-08T10:36:42;16.23;;;11.23;;
11125;SDS011;5617;54.046;10.676;2024-03-08T10:38:51;15.73;;;11.07;;
11125;SDS011;5617;54.046;10.676;2024-03-08T10:41:00;15.43;;;12.20;;
11125;SDS011;5617;54.046;10.676;2024-03-08T10:43:15;16.53;;;10.87;;
11125;SDS011;5617;54.046;10.676;2024-03-08T10:45:35;15.13;;;11.50;;
11125;SDS011;5617;54.046;10.676;2024-03-08T10:47:45;13.40;;;9.87;;
11125;SDS011;5617;54.046;10.676;2024-03-08T10:49:59;15.10;;;11.97;;
11125;SDS011;5617;54.046;10.676;2024-03-08T10:52:28;13.13;;;9.40;;
11125;SDS011;5617;54.046;10.676;2024-03-08T10:54:38;14.67;;;11.70;;
11125;SDS011;5617;54.046;10.676;2024-03-08T10:56:52;14.80;;;10.67;;
11125;SDS011;5617;54.046;10.676;2024-03-08T10:59:01;14.90;;;11.13;;
11125;SDS011;5617;54.046;10.676;2024-03-08T11:01:12;13.47;;;9.63;;
11125;SDS011;5617;54.046;10.676;2024-03-08T11:05:52;13.97;;;8.93;;
11125;SDS011;5617;54.046;10.676;2024-03-08T11:08:08;14.40;;;9.30;;
11125;SDS011;5617;54.046;10.676;2024-03-08T11:10:26;15.77;;;10.93;;
11125;SDS011;5617;54.046;10.676;2024-03-08T11:12:35;14.27;;;10.90;;
11125;SDS011;5617;54.046;10.676;2024-03-08T11:14:46;16.73;;;11.63;;
11125;SDS011;5617;54.046;10.676;2024-03-08T11:17:00;14.90;;;10.43;;
11125;SDS011;5617;54.046;10.676;2024-03-08T11:19:24;13.90;;;10.17;;
11125;SDS011;5617;54.046;10.676;2024-03-08T11:21:35;15.77;;;12.17;;
11125;SDS011;5617;54.046;10.676;2024-03-08T11:24:00;13.30;;;9.00;;
11125;SDS011;5617;54.046;10.676;2024-03-08T11:26:18;13.93;;;10.90;;
11125;SDS011;5617;54.046;10.676;2024-03-08T11:28:27;13.70;;;9.23;;
11125;SDS011;5617;54.046;10.676;2024-03-08T11:30:36;15.03;;;10.90;;
11125;SDS011;5617;54.046;10.676;2024-03-08T11:32:50;12.43;;;9.07;;
11125;SDS011;5617;54.046;10.676;2024-03-08T11:34:59;13.23;;;9.80;;
11125;SDS011;5617;54.046;10.676;2024-03-08T11:37:12;15.43;;;11.77;;
11125;SDS011;5617;54.046;10.676;2024-03-08T11:39:22;14.20;;;10.40;;
11125;SDS011;5617;54.046;10.676;2024-03-08T11:41:30;14.90;;;10.13;;
11125;SDS011;5617;54.046;10.676;2024-03-08T11:43:47;13.73;;;8.70;;
11125;SDS011;5617;54.046;10.676;2024-03-08T11:46:07;13.83;;;9.47;;
11125;SDS011;5617;54.046;10.676;2024-03-08T11:48:19;11.37;;;7.70;;
11125;SDS011;5617;54.046;10.676;2024-03-08T11:50:28;15.53;;;8.67;;
11125;SDS011;5617;54.046;10.676;2024-03-08T11:52:43;14.73;;;9.97;;
11125;SDS011;5617;54.046;10.676;2024-03-08T11:54:52;13.90;;;11.40;;
11125;SDS011;5617;54.046;10.676;2024-03-08T11:57:11;17.23;;;11.70;;
11125;SDS011;5617;54.046;10.676;2024-03-08T11:59:20;15.47;;;11.93;;
11125;SDS011;5617;54.046;10.676;2024-03-08T12:01:28;15.07;;;11.37;;
11125;SDS011;5617;54.046;10.676;2024-03-08T12:03:38;11.70;;;9.13;;
11125;SDS011;5617;54.046;10.676;2024-03-08T12:05:46;17.40;;;11.63;;
11125;SDS011;5617;54.046;10.676;2024-03-08T12:08:08;13.47;;;8.90;;
11125;SDS011;5617;54.046;10.676;2024-03-08T12:10:22;14.73;;;10.77;;
11125;SDS011;5617;54.046;10.676;2024-03-08T12:12:35;16.10;;;11.67;;
11125;SDS011;5617;54.046;10.676;2024-03-08T12:14:53;15.33;;;10.80;;
11125;SDS011;5617;54.046;10.676;2024-03-08T12:17:03;13.23;;;9.47;;
11125;SDS011;5617;54.046;10.676;2024-03-08T12:19:14;13.87;;;10.90;;
11125;SDS011;5617;54.046;10.676;2024-03-08T12:21:26;12.43;;;8.87;;
11125;SDS011;5617;54.046;10.676;2024-03-08T12:23:36;15.17;;;11.23;;
11125;SDS011;5617;54.046;10.676;2024-03-08T12:25:50;15.77;;;12.47;;
11125;SDS011;5617;54.046;10.676;2024-03-08T12:28:06;12.90;;;8.83;;
11125;SDS011;5617;54.046;10.676;2024-03-08T12:30:18;18.13;;;13.57;;
11125;SDS011;5617;54.046;10.676;2024-03-08T12:32:46;17.40;;;12.17;;
11125;SDS011;5617;54.046;10.676;2024-03-08T12:35:07;17.87;;;11.87;;
11125;SDS011;5617;54.046;10.676;2024-03-08T12:37:17;12.90;;;9.43;;
11125;SDS011;5617;54.046;10.676;2024-03-08T12:39:36;16.27;;;11.57;;
11125;SDS011;5617;54.046;10.676;2024-03-08T12:41:54;16.00;;;11.57;;
11125;SDS011;5617;54.046;10.676;2024-03-08T12:44:22;16.50;;;12.47;;
11125;SDS011;5617;54.046;10.676;2024-03-08T12:46:31;16.23;;;11.43;;
11125;SDS011;5617;54.046;10.676;2024-03-08T12:49:00;16.37;;;12.67;;
11125;SDS011;5617;54.046;10.676;2024-03-08T12:51:19;16.20;;;11.80;;
11125;SDS011;5617;54.046;10.676;2024-03-08T12:53:28;14.00;;;9.00;;
11125;SDS011;5617;54.046;10.676;2024-03-08T12:55:36;14.93;;;11.90;;
11125;SDS011;5617;54.046;10.676;2024-03-08T12:57:46;10.80;;;7.07;;
11125;SDS011;5617;54.046;10.676;2024-03-08T12:59:58;13.93;;;10.93;;